La rose des vents
Donnes mto: Semaine 05/02/07 - 11/02/07 (S 6)
Date Horaire Temp. E. Hum. E. P.atmo. Pluie Vent 1mn Direction Ensoleilleme Ev.Tr. Solaire P. de rose Temp au vent Rafales
05/02/2007 00:00 6,5 C 73 % 1024,8 hPa 0,0 l/m 5,2 km/h (1 Bft) O-NO 0,00 h 0,025 mm 0 W/m 2,0 C 5,7 C 7,5 km/h (2 Bft)
05/02/2007 01:00 6,5 C 71 % 1024,4 hPa 0,0 l/m 4,0 km/h (1 Bft) NO 0,00 h 0,025 mm 0 W/m 1,6 C 6,2 C 6,0 km/h (2 Bft)
05/02/2007 02:00 6,6 C 70 % 1024,1 hPa 0,0 l/m 4,5 km/h (1 Bft) O-NO 0,00 h 0,025 mm 0 W/m 1,5 C 6,1 C 5,8 km/h (1 Bft)
05/02/2007 03:00 5,8 C 73 % 1023,7 hPa 0,0 l/m 4,8 km/h (1 Bft) O-NO 0,00 h 0,025 mm 0 W/m 1,3 C 5,1 C 6,9 km/h (2 Bft)
05/02/2007 04:00 6,5 C 68 % 1023,3 hPa 0,0 l/m 5,8 km/h (1 Bft) O-NO 0,00 h 0,025 mm 0 W/m 1,0 C 5,6 C 7,0 km/h (2 Bft)
05/02/2007 05:00 5,8 C 71 % 1023,3 hPa 0,0 l/m 4,3 km/h (1 Bft) NO 0,00 h 0,025 mm 0 W/m 0,9 C 5,3 C 6,3 km/h (2 Bft)
05/02/2007 06:00 5,9 C 70 % 1022,9 hPa 0,0 l/m 4,0 km/h (1 Bft) O-NO 0,00 h 0,025 mm 0 W/m 0,8 C 5,4 C 5,3 km/h (1 Bft)
05/02/2007 07:00 5,5 C 71 % 1022,7 hPa 0,0 l/m 1,3 km/h (1 Bft) O-NO 0,08 h 0,025 mm 10 W/m 0,6 C 5,4 C 2,1 km/h (1 Bft)
05/02/2007 08:00 6,6 C 67 % 1022,5 hPa 0,0 l/m 0,5 km/h (0 Bft) O-NO 1,00 h 0,000 mm 84 W/m 0,9 C 6,6 C 0,9 km/h (0 Bft)
05/02/2007 09:00 9,4 C 60 % 1022,0 hPa 0,0 l/m 0,5 km/h (0 Bft) S 1,00 h 0,051 mm 229 W/m 1,9 C 9,4 C 1,3 km/h (1 Bft)
05/02/2007 10:00 10,9 C 57 % 1021,7 hPa 0,0 l/m 9,5 km/h (2 Bft) SO 1,00 h 0,102 mm 364 W/m 2,7 C 10,9 C 13,5 km/h (3 Bft)
05/02/2007 11:00 12,9 C 50 % 1021,0 hPa 0,0 l/m 10,4 km/h (2 Bft) S-SO 1,00 h 0,229 mm 458 W/m 2,8 C 12,9 C 14,8 km/h (3 Bft)
05/02/2007 12:00 14,1 C 45 % 1019,7 hPa 0,0 l/m 16,6 km/h (3 Bft) SO 1,00 h 0,305 mm 493 W/m 2,4 C 14,1 C 22,3 km/h (4 Bft)
05/02/2007 13:00 15,1 C 41 % 1018,3 hPa 0,0 l/m 19,9 km/h (4 Bft) SO 1,00 h 0,356 mm 479 W/m 1,8 C 15,1 C 26,6 km/h (4 Bft)
05/02/2007 14:00 15,4 C 37 % 1016,8 hPa 0,0 l/m 23,2 km/h (4 Bft) SO 1,00 h 0,406 mm 406 W/m 0,8 C 15,4 C 30,6 km/h (5 Bft)
05/02/2007 15:00 15,6 C 38 % 1015,8 hPa 0,0 l/m 22,5 km/h (4 Bft) SO 1,00 h 0,406 mm 297 W/m 1,4 C 15,6 C 29,3 km/h (5 Bft)
05/02/2007 16:00 14,9 C 47 % 1015,1 hPa 0,0 l/m 19,6 km/h (3 Bft) SO 1,00 h 0,330 mm 156 W/m 3,4 C 14,9 C 25,3 km/h (4 Bft)
05/02/2007 17:00 12,5 C 69 % 1014,7 hPa 0,0 l/m 18,2 km/h (3 Bft) SO 0,37 h 0,229 mm 32 W/m 7,0 C 12,5 C 24,2 km/h (4 Bft)
05/02/2007 18:00 10,9 C 75 % 1014,4 hPa 0,0 l/m 14,3 km/h (3 Bft) SO 0,00 h 0,076 mm 0 W/m 6,7 C 10,9 C 18,7 km/h (3 Bft)
05/02/2007 19:00 9,8 C 73 % 1014,4 hPa 0,0 l/m 9,1 km/h (2 Bft) O-SO 0,00 h 0,051 mm 0 W/m 5,3 C 8,7 C 13,4 km/h (3 Bft)
05/02/2007 20:00 8,8 C 73 % 1014,1 hPa 0,0 l/m 7,6 km/h (2 Bft) O-NO 0,00 h 0,051 mm 0 W/m 4,3 C 7,8 C 10,6 km/h (2 Bft)
05/02/2007 21:00 8,2 C 65 % 1013,6 hPa 0,0 l/m 9,7 km/h (2 Bft) O 0,00 h 0,025 mm 0 W/m 2,0 C 6,7 C 13,2 km/h (3 Bft)
05/02/2007 22:00 7,5 C 66 % 1013,1 hPa 0,0 l/m 8,1 km/h (2 Bft) O 0,00 h 0,051 mm 0 W/m 1,7 C 6,1 C 10,7 km/h (2 Bft)
05/02/2007 23:00 6,3 C 68 % 1012,4 hPa 0,0 l/m 5,9 km/h (2 Bft) O-NO 0,00 h 0,051 mm 0 W/m 0,8 C 5,3 C 8,3 km/h (2 Bft)
06/02/2007 00:00 6,4 C 71 % 1011,6 hPa 0,0 l/m 3,3 km/h (1 Bft) E-SE 0,00 h 0,025 mm 0 W/m 1,6 C 6,0 C 4,8 km/h (1 Bft)
06/02/2007 01:00 6,2 C 75 % 1010,7 hPa 0,0 l/m 4,6 km/h (1 Bft) NO 0,00 h 0,025 mm 0 W/m 2,1 C 5,4 C 7,0 km/h (2 Bft)
06/02/2007 02:00 6,8 C 74 % 1009,9 hPa 0,0 l/m 8,3 km/h (2 Bft) O 0,00 h 0,025 mm 0 W/m 2,5 C 5,2 C 12,0 km/h (2 Bft)
06/02/2007 03:00 6,5 C 74 % 1008,8 hPa 0,0 l/m 6,2 km/h (2 Bft) O 0,00 h 0,025 mm 0 W/m 2,3 C 5,4 C 8,6 km/h (2 Bft)
06/02/2007 04:00 5,9 C 77 % 1008,1 hPa 0,0 l/m 8,1 km/h (2 Bft) O-NO 0,00 h 0,025 mm 0 W/m 2,2 C 4,2 C 11,0 km/h (2 Bft)
06/02/2007 05:00 5,6 C 76 % 1007,4 hPa 0,0 l/m 4,2 km/h (1 Bft) O 0,00 h 0,025 mm 0 W/m 1,8 C 5,0 C 5,7 km/h (1 Bft)
06/02/2007 06:00 5,9 C 74 % 1006,8 hPa 0,0 l/m 1,8 km/h (1 Bft) SO 0,00 h 0,025 mm 0 W/m 1,6 C 5,9 C 2,6 km/h (1 Bft)
06/02/2007 07:00 5,6 C 75 % 1006,6 hPa 0,0 l/m 2,5 km/h (1 Bft) NO 0,02 h 0,025 mm 8 W/m 1,6 C 5,4 C 4,5 km/h (1 Bft)
06/02/2007 08:00 6,1 C 73 % 1006,4 hPa 0,0 l/m 0,5 km/h (0 Bft) NO 0,12 h 0,000 mm 54 W/m 1,7 C 6,1 C 1,0 km/h (0 Bft)
06/02/2007 09:00 8,6 C 64 % 1006,2 hPa 0,0 l/m 0,1 km/h (0 Bft) O-NO 0,93 h 0,025 mm 239 W/m 2,2 C 8,6 C 0,8 km/h (0 Bft)
06/02/2007 10:00 10,3 C 62 % 1005,9 hPa 0,0 l/m 4,0 km/h (1 Bft) S-SO 0,48 h 0,102 mm 287 W/m 3,4 C 10,3 C 6,3 km/h (2 Bft)
06/02/2007 11:00 11,8 C 61 % 1005,3 hPa 0,0 l/m 6,4 km/h (2 Bft) S-SO 0,78 h 0,152 mm 419 W/m 4,6 C 11,8 C 10,0 km/h (2 Bft)
06/02/2007 12:00 12,0 C 63 % 1004,5 hPa 0,0 l/m 6,0 km/h (2 Bft) S 0,40 h 0,229 mm 307 W/m 5,1 C 12,0 C 9,2 km/h (2 Bft)
06/02/2007 13:00 13,2 C 60 % 1003,4 hPa 0,0 l/m 9,2 km/h (2 Bft) S-SO 0,85 h 0,178 mm 433 W/m 5,6 C 13,2 C 13,1 km/h (3 Bft)
06/02/2007 14:00 14,1 C 60 % 1002,2 hPa 0,0 l/m 9,4 km/h (2 Bft) S 1,00 h 0,254 mm 396 W/m 6,4 C 14,1 C 13,8 km/h (3 Bft)
06/02/2007 15:00 14,1 C 64 % 1001,6 hPa 0,0 l/m 9,1 km/h (2 Bft) S-SE 0,88 h 0,254 mm 265 W/m 7,2 C 14,1 C 12,8 km/h (3 Bft)
06/02/2007 16:00 13,3 C 69 % 1001,1 hPa 0,0 l/m 3,4 km/h (1 Bft) NE 0,72 h 0,178 mm 125 W/m 7,8 C 13,3 C 5,6 km/h (1 Bft)
06/02/2007 17:00 11,6 C 81 % 1000,8 hPa 0,0 l/m 3,0 km/h (1 Bft) N-NE 0,23 h 0,076 mm 28 W/m 8,3 C 11,6 C 5,4 km/h (1 Bft)
06/02/2007 18:00 10,1 C 87 % 1000,9 hPa 0,0 l/m 2,4 km/h (1 Bft) N 0,00 h 0,025 mm 0 W/m 8,0 C 10,1 C 4,4 km/h (1 Bft)
06/02/2007 19:00 9,9 C 78 % 1000,9 hPa 0,0 l/m 4,9 km/h (1 Bft) S-SO 0,00 h 0,000 mm 0 W/m 6,1 C 9,6 C 6,6 km/h (2 Bft)
06/02/2007 20:00 9,2 C 73 % 1000,9 hPa 0,0 l/m 12,8 km/h (3 Bft) O 0,00 h 0,025 mm 0 W/m 4,5 C 7,4 C 17,1 km/h (3 Bft)
06/02/2007 21:00 9,3 C 70 % 1000,5 hPa 0,0 l/m 18,7 km/h (3 Bft) O-SO 0,00 h 0,051 mm 0 W/m 4,2 C 6,7 C 24,7 km/h (4 Bft)
06/02/2007 22:00 9,0 C 70 % 1000,3 hPa 0,0 l/m 22,1 km/h (4 Bft) O-SO 0,00 h 0,076 mm 0 W/m 3,9 C 5,9 C 27,7 km/h (4 Bft)
06/02/2007 23:00 8,6 C 70 % 1000,1 hPa 0,0 l/m 22,3 km/h (4 Bft) O-SO 0,00 h 0,076 mm 0 W/m 3,5 C 5,4 C 28,4 km/h (4 Bft)
07/02/2007 00:00 8,3 C 71 % 999,9 hPa 0,0 l/m 15,6 km/h (3 Bft) O-SO 0,00 h 0,076 mm 0 W/m 3,3 C 5,8 C 22,7 km/h (4 Bft)
07/02/2007 01:00 7,7 C 73 % 999,8 hPa 0,0 l/m 10,8 km/h (2 Bft) O 0,00 h 0,051 mm 0 W/m 3,0 C 5,8 C 16,2 km/h (3 Bft)
07/02/2007 02:00 7,0 C 71 % 999,7 hPa 0,0 l/m 3,6 km/h (1 Bft) N-NO 0,00 h 0,051 mm 0 W/m 2,2 C 6,5 C 5,4 km/h (1 Bft)
07/02/2007 03:00 5,9 C 76 % 1000,0 hPa 0,0 l/m 3,5 km/h (1 Bft) O 0,00 h 0,025 mm 0 W/m 2,0 C 5,3 C 5,2 km/h (1 Bft)
07/02/2007 04:00 6,2 C 73 % 999,9 hPa 0,0 l/m 5,5 km/h (1 Bft) O 0,00 h 0,025 mm 0 W/m 1,7 C 5,4 C 8,3 km/h (2 Bft)
07/02/2007 05:00 5,9 C 72 % 1000,2 hPa 0,0 l/m 7,4 km/h (2 Bft) O 0,00 h 0,025 mm 0 W/m 1,3 C 4,4 C 11,0 km/h (2 Bft)
07/02/2007 06:00 6,0 C 73 % 1000,4 hPa 0,0 l/m 6,3 km/h (2 Bft) O-SO 0,00 h 0,025 mm 0 W/m 1,6 C 4,8 C 8,9 km/h (2 Bft)
07/02/2007 07:00 5,5 C 76 % 1000,8 hPa 0,0 l/m 3,4 km/h (1 Bft) N 0,13 h 0,025 mm 13 W/m 1,7 C 5,0 C 5,1 km/h (1 Bft)
07/02/2007 08:00 6,6 C 75 % 1001,3 hPa 0,0 l/m 3,4 km/h (1 Bft) NO 0,08 h 0,025 mm 55 W/m 2,4 C 6,3 C 5,2 km/h (1 Bft)
07/02/2007 09:00 8,4 C 69 % 1001,7 hPa 0,0 l/m 3,9 km/h (1 Bft) O-NO 0,87 h 0,025 mm 227 W/m 2,9 C 8,0 C 5,9 km/h (2 Bft)
07/02/2007 10:00 10,2 C 60 % 1001,8 hPa 0,0 l/m 8,0 km/h (2 Bft) O-SO 0,60 h 0,127 mm 296 W/m 2,8 C 9,8 C 12,4 km/h (3 Bft)
07/02/2007 11:00 10,8 C 60 % 1001,8 hPa 0,0 l/m 13,4 km/h (3 Bft) SO 0,12 h 0,178 mm 207 W/m 3,3 C 10,8 C 18,2 km/h (3 Bft)
07/02/2007 12:00 11,1 C 61 % 1001,5 hPa 0,0 l/m 15,0 km/h (3 Bft) SO 0,00 h 0,152 mm 164 W/m 4,0 C 11,1 C 20,5 km/h (4 Bft)
07/02/2007 13:00 11,8 C 61 % 1001,0 hPa 0,0 l/m 15,7 km/h (3 Bft) SO 0,00 h 0,152 mm 164 W/m 4,5 C 11,8 C 20,6 km/h (4 Bft)
07/02/2007 14:00 12,5 C 59 % 1000,7 hPa 0,0 l/m 17,4 km/h (3 Bft) SO 0,00 h 0,152 mm 142 W/m 4,7 C 12,5 C 22,7 km/h (4 Bft)
07/02/2007 15:00 12,5 C 58 % 1000,8 hPa 0,0 l/m 12,6 km/h (3 Bft) SO 0,00 h 0,152 mm 120 W/m 4,5 C 12,5 C 16,3 km/h (3 Bft)
07/02/2007 16:00 12,2 C 60 % 1000,9 hPa 0,0 l/m 15,2 km/h (3 Bft) SO 0,53 h 0,127 mm 128 W/m 4,6 C 12,2 C 19,6 km/h (3 Bft)
07/02/2007 17:00 11,4 C 63 % 1001,3 hPa 0,0 l/m 16,0 km/h (3 Bft) O-SO 0,30 h 0,152 mm 34 W/m 4,7 C 11,4 C 20,9 km/h (4 Bft)
07/02/2007 18:00 9,9 C 70 % 1002,0 hPa 0,0 l/m 12,9 km/h (3 Bft) O-SO 0,00 h 0,076 mm 0 W/m 4,6 C 8,7 C 16,9 km/h (3 Bft)
07/02/2007 19:00 9,5 C 74 % 1002,6 hPa 0,2 l/m 12,9 km/h (3 Bft) O-SO 0,00 h 0,051 mm 0 W/m 5,0 C 7,6 C 18,0 km/h (3 Bft)
07/02/2007 20:00 7,6 C 87 % 1002,4 hPa 0,0 l/m 11,2 km/h (2 Bft) SO 0,00 h 0,051 mm 0 W/m 5,5 C 5,6 C 14,2 km/h (3 Bft)
07/02/2007 21:00 6,9 C 86 % 1002,4 hPa 0,2 l/m 1,8 km/h (1 Bft) N 0,00 h 0,025 mm 0 W/m 4,8 C 6,7 C 3,4 km/h (1 Bft)
07/02/2007 22:00 6,9 C 84 % 1002,4 hPa 0,0 l/m 5,1 km/h (1 Bft) O-SO 0,00 h 0,025 mm 0 W/m 4,4 C 6,2 C 7,4 km/h (2 Bft)
07/02/2007 23:00 7,2 C 83 % 1002,2 hPa 0,0 l/m 14,8 km/h (3 Bft) SO 0,00 h 0,025 mm 0 W/m 4,5 C 4,6 C 19,4 km/h (3 Bft)
08/02/2007 00:00 7,5 C 83 % 1002,0 hPa 0,0 l/m 19,5 km/h (3 Bft) O-SO 0,00 h 0,025 mm 0 W/m 4,7 C 4,3 C 24,7 km/h (4 Bft)
08/02/2007 01:00 7,1 C 83 % 1001,8 hPa 0,0 l/m 17,2 km/h (3 Bft) O-SO 0,00 h 0,051 mm 0 W/m 4,3 C 4,1 C 23,0 km/h (4 Bft)
08/02/2007 02:00 6,7 C 79 % 1001,9 hPa 0,0 l/m 4,3 km/h (1 Bft) N 0,00 h 0,051 mm 0 W/m 3,4 C 6,2 C 7,0 km/h (2 Bft)
08/02/2007 03:00 6,1 C 79 % 1001,8 hPa 0,0 l/m 2,4 km/h (1 Bft) S 0,00 h 0,025 mm 0 W/m 2,8 C 5,8 C 3,5 km/h (1 Bft)
08/02/2007 04:00 5,8 C 79 % 1002,2 hPa 0,0 l/m 3,8 km/h (1 Bft) SE 0,00 h 0,025 mm 0 W/m 2,5 C 5,3 C 5,6 km/h (1 Bft)
08/02/2007 05:00 5,8 C 77 % 1002,5 hPa 0,0 l/m 3,6 km/h (1 Bft) E-SE 0,00 h 0,025 mm 0 W/m 2,1 C 5,4 C 5,7 km/h (1 Bft)
08/02/2007 06:00 8,0 C 64 % 1002,6 hPa 0,0 l/m 8,8 km/h (2 Bft) S-SO 0,00 h 0,025 mm 0 W/m 1,5 C 6,5 C 11,9 km/h (2 Bft)
08/02/2007 07:00 10,0 C 55 % 1002,7 hPa 0,0 l/m 9,3 km/h (2 Bft) SO 0,10 h 0,051 mm 13 W/m 1,5 C 9,3 C 12,2 km/h (3 Bft)
08/02/2007 08:00 8,7 C 63 % 1003,5 hPa 0,0 l/m 10,0 km/h (2 Bft) SO 0,07 h 0,051 mm 55 W/m 2,2 C 7,2 C 12,8 km/h (3 Bft)
08/02/2007 09:00 9,7 C 63 % 1004,4 hPa 0,0 l/m 14,2 km/h (3 Bft) SO 0,38 h 0,076 mm 152 W/m 3,0 C 8,2 C 17,8 km/h (3 Bft)
08/02/2007 10:00 11,2 C 63 % 1004,6 hPa 0,0 l/m 9,2 km/h (2 Bft) SO 0,33 h 0,127 mm 230 W/m 4,5 C 11,2 C 12,4 km/h (3 Bft)
08/02/2007 11:00 12,5 C 66 % 1004,5 hPa 0,0 l/m 11,7 km/h (2 Bft) O-SO 0,92 h 0,152 mm 308 W/m 6,2 C 12,5 C 16,0 km/h (3 Bft)
08/02/2007 12:00 12,9 C 65 % 1003,9 hPa 0,0 l/m 14,9 km/h (3 Bft) SO 0,28 h 0,203 mm 267 W/m 6,5 C 12,9 C 19,3 km/h (3 Bft)
08/02/2007 13:00 13,0 C 64 % 1003,0 hPa 0,0 l/m 11,3 km/h (2 Bft) SO 0,00 h 0,203 mm 155 W/m 6,3 C 13,0 C 14,8 km/h (3 Bft)
08/02/2007 14:00 12,3 C 73 % 1002,4 hPa 0,0 l/m 4,7 km/h (1 Bft) S-SO 0,00 h 0,127 mm 59 W/m 7,6 C 12,3 C 7,1 km/h (2 Bft)
08/02/2007 15:00 12,1 C 78 % 1002,1 hPa 0,0 l/m 0,2 km/h (0 Bft) S 0,00 h 0,051 mm 66 W/m 8,5 C 12,1 C 0,7 km/h (0 Bft)
08/02/2007 16:00 11,4 C 87 % 1002,1 hPa 0,2 l/m 1,4 km/h (1 Bft) S 0,00 h 0,025 mm 49 W/m 9,4 C 11,4 C 1,8 km/h (1 Bft)
08/02/2007 17:00 10,6 C 91 % 1002,4 hPa 0,2 l/m 5,4 km/h (1 Bft) O-SO 0,00 h 0,025 mm 18 W/m 9,1 C 10,6 C 7,3 km/h (2 Bft)
08/02/2007 18:00 10,0 C 91 % 1002,5 hPa 0,4 l/m 9,6 km/h (2 Bft) O-SO 0,00 h 0,025 mm 0 W/m 8,7 C 8,9 C 13,7 km/h (3 Bft)
08/02/2007 19:00 9,7 C 93 % 1003,0 hPa 0,0 l/m 8,6 km/h (2 Bft) O-SO 0,00 h 0,025 mm 0 W/m 8,6 C 8,6 C 13,4 km/h (3 Bft)
08/02/2007 20:00 9,3 C 93 % 1002,6 hPa 0,0 l/m 3,3 km/h (1 Bft) O 0,00 h 0,025 mm 0 W/m 8,2 C 9,0 C 4,9 km/h (1 Bft)
08/02/2007 21:00 8,8 C 92 % 1002,1 hPa 0,0 l/m 9,4 km/h (2 Bft) O-SO 0,00 h 0,000 mm 0 W/m 7,6 C 7,4 C 14,0 km/h (3 Bft)
08/02/2007 22:00 8,5 C 92 % 1001,5 hPa 0,0 l/m 5,6 km/h (1 Bft) O-NO 0,00 h 0,025 mm 0 W/m 7,2 C 7,7 C 8,4 km/h (2 Bft)
08/02/2007 23:00 8,1 C 92 % 1001,0 hPa 0,0 l/m 2,6 km/h (1 Bft) O-NO 0,00 h 0,025 mm 0 W/m 6,8 C 7,8 C 3,7 km/h (1 Bft)
09/02/2007 00:00 7,6 C 91 % 1001,0 hPa 0,0 l/m 0,5 km/h (0 Bft) NO 0,00 h 0,000 mm 0 W/m 6,2 C 7,6 C 1,2 km/h (1 Bft)
09/02/2007 01:00 6,5 C 91 % 1000,9 hPa 0,0 l/m 2,1 km/h (1 Bft) N 0,00 h 0,000 mm 0 W/m 5,1 C 6,3 C 3,7 km/h (1 Bft)
09/02/2007 02:00 6,4 C 91 % 1000,8 hPa 0,0 l/m 5,8 km/h (2 Bft) NE 0,00 h 0,000 mm 0 W/m 5,1 C 5,4 C 8,2 km/h (2 Bft)
09/02/2007 03:00 6,3 C 89 % 1000,8 hPa 0,0 l/m 8,4 km/h (2 Bft) NE 0,00 h 0,025 mm 0 W/m 4,6 C 4,7 C 12,6 km/h (3 Bft)
09/02/2007 04:00 5,6 C 87 % 1000,9 hPa 0,0 l/m 4,7 km/h (1 Bft) N 0,00 h 0,025 mm 0 W/m 3,6 C 4,9 C 7,4 km/h (2 Bft)
09/02/2007 05:00 5,8 C 85 % 1001,0 hPa 0,0 l/m 7,7 km/h (2 Bft) N-NE 0,00 h 0,025 mm 0 W/m 3,5 C 4,2 C 12,1 km/h (2 Bft)
09/02/2007 06:00 6,1 C 81 % 1001,1 hPa 0,0 l/m 9,2 km/h (2 Bft) N-NE 0,00 h 0,025 mm 0 W/m 3,1 C 4,2 C 14,4 km/h (3 Bft)
09/02/2007 07:00 5,7 C 83 % 1001,8 hPa 0,0 l/m 5,8 km/h (2 Bft) N 0,00 h 0,025 mm 10 W/m 3,0 C 4,6 C 8,8 km/h (2 Bft)
09/02/2007 08:00 7,8 C 81 % 1002,4 hPa 0,0 l/m 3,4 km/h (1 Bft) N 0,97 h 0,025 mm 106 W/m 4,7 C 7,4 C 6,4 km/h (2 Bft)
09/02/2007 09:00 10,5 C 70 % 1002,6 hPa 0,0 l/m 3,0 km/h (1 Bft) NE 0,93 h 0,051 mm 239 W/m 5,2 C 10,5 C 5,4 km/h (1 Bft)
09/02/2007 10:00 11,9 C 65 % 1002,7 hPa 0,0 l/m 6,7 km/h (2 Bft) NE 1,00 h 0,127 mm 367 W/m 5,6 C 11,9 C 9,6 km/h (2 Bft)
09/02/2007 11:00 13,2 C 64 % 1003,0 hPa 0,0 l/m 7,6 km/h (2 Bft) E-NE 1,00 h 0,203 mm 471 W/m 6,7 C 13,2 C 11,4 km/h (2 Bft)
09/02/2007 12:00 13,6 C 67 % 1003,5 hPa 0,0 l/m 5,6 km/h (1 Bft) E 1,00 h 0,279 mm 512 W/m 7,5 C 13,6 C 9,2 km/h (2 Bft)
09/02/2007 13:00 13,8 C 67 % 1003,5 hPa 0,0 l/m 5,1 km/h (1 Bft) E 1,00 h 0,279 mm 500 W/m 7,7 C 13,8 C 8,3 km/h (2 Bft)
09/02/2007 14:00 13,8 C 66 % 1003,3 hPa 0,0 l/m 5,2 km/h (1 Bft) E 1,00 h 0,279 mm 429 W/m 7,6 C 13,8 C 9,7 km/h (2 Bft)
09/02/2007 15:00 13,6 C 63 % 1003,6 hPa 0,0 l/m 2,9 km/h (1 Bft) E 0,92 h 0,254 mm 288 W/m 6,7 C 13,6 C 5,6 km/h (1 Bft)
09/02/2007 16:00 12,6 C 62 % 1004,2 hPa 0,0 l/m 1,2 km/h (1 Bft) S-SE 0,17 h 0,152 mm 98 W/m 5,5 C 12,6 C 2,7 km/h (1 Bft)
09/02/2007 17:00 11,2 C 68 % 1005,3 hPa 0,0 l/m 4,0 km/h (1 Bft) SO 0,03 h 0,051 mm 20 W/m 5,5 C 11,2 C 5,2 km/h (1 Bft)
09/02/2007 18:00 11,1 C 66 % 1006,7 hPa 0,0 l/m 4,0 km/h (1 Bft) O-SO 0,00 h 0,025 mm 0 W/m 5,0 C 11,1 C 5,2 km/h (1 Bft)
09/02/2007 19:00 10,8 C 70 % 1007,6 hPa 0,0 l/m 1,6 km/h (1 Bft) O-NO 0,00 h 0,025 mm 0 W/m 5,5 C 10,8 C 2,7 km/h (1 Bft)
09/02/2007 20:00 10,0 C 73 % 1007,8 hPa 0,0 l/m 3,6 km/h (1 Bft) O-NO 0,00 h 0,025 mm 0 W/m 5,5 C 9,9 C 5,7 km/h (1 Bft)
09/02/2007 21:00 9,0 C 77 % 1007,9 hPa 0,0 l/m 4,4 km/h (1 Bft) NO 0,00 h 0,025 mm 0 W/m 5,3 C 8,8 C 6,7 km/h (2 Bft)
09/02/2007 22:00 8,2 C 80 % 1007,9 hPa 0,0 l/m 5,7 km/h (1 Bft) O-NO 0,00 h 0,025 mm 0 W/m 5,0 C 7,6 C 8,7 km/h (2 Bft)
09/02/2007 23:00 7,9 C 77 % 1007,8 hPa 0,0 l/m 6,6 km/h (2 Bft) O-NO 0,00 h 0,025 mm 0 W/m 4,1 C 6,9 C 9,8 km/h (2 Bft)
10/02/2007 00:00 7,6 C 76 % 1007,4 hPa 0,0 l/m 4,9 km/h (1 Bft) O-NO 0,00 h 0,025 mm 0 W/m 3,6 C 7,0 C 7,8 km/h (2 Bft)
10/02/2007 01:00 7,3 C 74 % 1007,0 hPa 0,0 l/m 6,3 km/h (2 Bft) O-NO 0,00 h 0,025 mm 0 W/m 2,9 C 6,3 C 9,4 km/h (2 Bft)
10/02/2007 02:00 7,7 C 70 % 1007,3 hPa 0,0 l/m 13,9 km/h (3 Bft) O-NO 0,00 h 0,025 mm 0 W/m 2,6 C 5,2 C 17,8 km/h (3 Bft)
10/02/2007 03:00 8,2 C 69 % 1006,9 hPa 0,0 l/m 13,2 km/h (3 Bft) O-NO 0,00 h 0,051 mm 0 W/m 2,9 C 6,0 C 17,1 km/h (3 Bft)
10/02/2007 04:00 7,7 C 69 % 1006,9 hPa 0,0 l/m 9,2 km/h (2 Bft) O-NO 0,00 h 0,051 mm 0 W/m 2,3 C 6,1 C 12,7 km/h (3 Bft)
10/02/2007 05:00 7,7 C 70 % 1006,9 hPa 0,0 l/m 9,0 km/h (2 Bft) O-NO 0,00 h 0,051 mm 0 W/m 2,6 C 6,1 C 12,5 km/h (3 Bft)
10/02/2007 06:00 6,9 C 73 % 1006,8 hPa 0,0 l/m 4,1 km/h (1 Bft) N-NO 0,00 h 0,051 mm 0 W/m 2,4 C 6,4 C 6,4 km/h (2 Bft)
10/02/2007 07:00 7,0 C 76 % 1006,6 hPa 0,0 l/m 2,3 km/h (1 Bft) N-NO 0,18 h 0,025 mm 16 W/m 3,0 C 6,9 C 4,3 km/h (1 Bft)
10/02/2007 08:00 7,8 C 76 % 1006,7 hPa 0,0 l/m 2,3 km/h (1 Bft) SO 0,23 h 0,025 mm 70 W/m 3,8 C 7,6 C 3,5 km/h (1 Bft)
10/02/2007 09:00 9,2 C 74 % 1007,0 hPa 0,0 l/m 3,5 km/h (1 Bft) O 0,02 h 0,051 mm 132 W/m 4,7 C 9,0 C 5,5 km/h (1 Bft)
10/02/2007 10:00 9,9 C 76 % 1007,2 hPa 0,0 l/m 4,7 km/h (1 Bft) O-SO 0,00 h 0,076 mm 117 W/m 5,9 C 9,7 C 7,0 km/h (2 Bft)
10/02/2007 11:00 10,6 C 78 % 1007,2 hPa 0,0 l/m 10,5 km/h (2 Bft) O-SO 0,00 h 0,076 mm 194 W/m 6,9 C 10,6 C 14,3 km/h (3 Bft)
10/02/2007 12:00 11,4 C 72 % 1006,5 hPa 0,0 l/m 13,6 km/h (3 Bft) SO 0,53 h 0,127 mm 349 W/m 6,5 C 11,4 C 17,9 km/h (3 Bft)
10/02/2007 13:00 11,8 C 66 % 1005,4 hPa 0,0 l/m 14,6 km/h (3 Bft) SO 0,60 h 0,229 mm 314 W/m 5,6 C 11,8 C 19,1 km/h (3 Bft)
10/02/2007 14:00 12,2 C 64 % 1004,7 hPa 0,0 l/m 10,1 km/h (2 Bft) SO 1,00 h 0,203 mm 291 W/m 5,5 C 12,2 C 14,0 km/h (3 Bft)
10/02/2007 15:00 12,3 C 62 % 1004,6 hPa 0,0 l/m 4,3 km/h (1 Bft) O-SO 0,68 h 0,178 mm 213 W/m 5,2 C 12,3 C 7,1 km/h (2 Bft)
10/02/2007 16:00 12,2 C 65 % 1005,0 hPa 0,0 l/m 4,2 km/h (1 Bft) NE 0,50 h 0,127 mm 141 W/m 5,8 C 12,2 C 6,3 km/h (2 Bft)
10/02/2007 17:00 11,1 C 72 % 1005,3 hPa 0,0 l/m 8,1 km/h (2 Bft) E-NE 0,33 h 0,102 mm 38 W/m 6,2 C 11,1 C 11,2 km/h (2 Bft)
10/02/2007 18:00 10,0 C 83 % 1006,1 hPa 0,0 l/m 2,4 km/h (1 Bft) E-SE 0,00 h 0,051 mm 0 W/m 7,3 C 10,0 C 4,3 km/h (1 Bft)
10/02/2007 19:00 9,5 C 87 % 1007,3 hPa 0,0 l/m 2,9 km/h (1 Bft) S-SE 0,00 h 0,000 mm 0 W/m 7,4 C 9,4 C 4,9 km/h (1 Bft)
10/02/2007 20:00 9,1 C 89 % 1008,1 hPa 0,0 l/m 1,8 km/h (1 Bft) NE 0,00 h 0,025 mm 0 W/m 7,4 C 9,1 C 3,7 km/h (1 Bft)
10/02/2007 21:00 9,0 C 89 % 1008,8 hPa 0,0 l/m 1,7 km/h (1 Bft) NO 0,00 h 0,025 mm 0 W/m 7,3 C 8,9 C 2,8 km/h (1 Bft)
10/02/2007 22:00 8,1 C 90 % 1008,9 hPa 0,0 l/m 4,0 km/h (1 Bft) NO 0,00 h 0,025 mm 0 W/m 6,5 C 7,8 C 5,8 km/h (2 Bft)
10/02/2007 23:00 7,0 C 90 % 1009,1 hPa 0,0 l/m 4,7 km/h (1 Bft) O-NO 0,00 h 0,025 mm 0 W/m 5,5 C 6,4 C 7,4 km/h (2 Bft)
11/02/2007 00:00 6,3 C 89 % 1009,5 hPa 0,0 l/m 4,6 km/h (1 Bft) O-NO 0,00 h 0,025 mm 0 W/m 4,7 C 5,7 C 6,7 km/h (2 Bft)
11/02/2007 01:00 6,5 C 87 % 1009,6 hPa 0,0 l/m 4,7 km/h (1 Bft) O-NO 0,00 h 0,025 mm 0 W/m 4,5 C 6,0 C 6,6 km/h (2 Bft)
11/02/2007 02:00 6,5 C 84 % 1009,9 hPa 0,0 l/m 8,3 km/h (2 Bft) O-NO 0,00 h 0,025 mm 0 W/m 4,0 C 4,9 C 11,5 km/h (2 Bft)
11/02/2007 03:00 6,8 C 77 % 1010,0 hPa 0,0 l/m 12,1 km/h (2 Bft) O-NO 0,00 h 0,025 mm 0 W/m 3,1 C 4,5 C 16,1 km/h (3 Bft)
11/02/2007 04:00 6,2 C 75 % 1009,9 hPa 0,0 l/m 4,2 km/h (1 Bft) N 0,00 h 0,051 mm 0 W/m 2,1 C 5,6 C 6,0 km/h (2 Bft)
11/02/2007 05:00 6,5 C 70 % 1009,8 hPa 0,0 l/m 3,8 km/h (1 Bft) NO 0,00 h 0,025 mm 0 W/m 1,4 C 6,0 C 5,6 km/h (1 Bft)
11/02/2007 06:00 6,9 C 63 % 1010,1 hPa 0,0 l/m 5,8 km/h (2 Bft) SO 0,00 h 0,025 mm 0 W/m 0,3 C 6,0 C 7,9 km/h (2 Bft)
11/02/2007 07:00 7,4 C 64 % 1010,7 hPa 0,0 l/m 6,0 km/h (2 Bft) O 0,22 h 0,051 mm 21 W/m 1,1 C 6,4 C 8,7 km/h (2 Bft)
11/02/2007 08:00 7,9 C 62 % 1011,4 hPa 0,0 l/m 1,3 km/h (1 Bft) O-NO 0,38 h 0,025 mm 54 W/m 1,1 C 7,8 C 2,2 km/h (1 Bft)
11/02/2007 09:00 8,3 C 61 % 1010,7 hPa 0,0 l/m 2,1 km/h (1 Bft) N 0,00 h 0,025 mm 79 W/m 1,3 C 8,1 C 3,8 km/h (1 Bft)
11/02/2007 10:00 9,0 C 66 % 1010,5 hPa 0,0 l/m 0,6 km/h (0 Bft) S-SE 0,00 h 0,051 mm 114 W/m 3,0 C 9,0 C 1,3 km/h (1 Bft)
11/02/2007 11:00 10,1 C 66 % 1010,0 hPa 0,0 l/m 1,7 km/h (1 Bft) E 0,27 h 0,051 mm 240 W/m 4,0 C 10,1 C 3,0 km/h (1 Bft)
11/02/2007 12:00 11,1 C 61 % 1009,5 hPa 0,0 l/m 2,7 km/h (1 Bft) E-NE 0,47 h 0,127 mm 303 W/m 3,9 C 11,1 C 4,4 km/h (1 Bft)
11/02/2007 13:00 12,2 C 60 % 1008,5 hPa 0,0 l/m 3,2 km/h (1 Bft) NE 0,67 h 0,152 mm 309 W/m 4,6 C 12,2 C 5,2 km/h (1 Bft)
11/02/2007 14:00 13,0 C 61 % 1007,8 hPa 0,0 l/m 4,0 km/h (1 Bft) E-NE 0,48 h 0,178 mm 271 W/m 5,7 C 13,0 C 6,4 km/h (2 Bft)
11/02/2007 15:00 12,4 C 65 % 1007,7 hPa 0,0 l/m 3,8 km/h (1 Bft) E-NE 0,33 h 0,152 mm 187 W/m 6,1 C 12,4 C 5,8 km/h (2 Bft)
11/02/2007 16:00 12,0 C 72 % 1008,2 hPa 0,0 l/m 3,9 km/h (1 Bft) E-NE 0,60 h 0,102 mm 137 W/m 7,1 C 12,0 C 6,2 km/h (2 Bft)
11/02/2007 17:00 10,6 C 79 % 1008,8 hPa 0,0 l/m 2,6 km/h (1 Bft) E 0,00 h 0,076 mm 33 W/m 7,0 C 10,5 C 4,4 km/h (1 Bft)
11/02/2007 18:00 9,4 C 84 % 1009,3 hPa 0,0 l/m 2,3 km/h (1 Bft) S-SO 0,00 h 0,025 mm 0 W/m 6,8 C 9,3 C 3,5 km/h (1 Bft)
11/02/2007 19:00 9,1 C 87 % 1009,4 hPa 0,0 l/m 4,2 km/h (1 Bft) S 0,00 h 0,000 mm 0 W/m 7,1 C 8,7 C 5,5 km/h (1 Bft)
11/02/2007 20:00 8,8 C 88 % 1009,9 hPa 0,0 l/m 0,9 km/h (0 Bft) O-NO 0,00 h 0,025 mm 0 W/m 6,9 C 8,8 C 2,1 km/h (1 Bft)
11/02/2007 21:00 8,1 C 89 % 1010,0 hPa 0,0 l/m 1,4 km/h (1 Bft) NO 0,00 h 0,025 mm 0 W/m 6,4 C 8,1 C 3,2 km/h (1 Bft)
11/02/2007 22:00 7,8 C 89 % 1010,1 hPa 0,0 l/m 4,0 km/h (1 Bft) NO 0,00 h 0,000 mm 0 W/m 6,2 C 7,5 C 5,7 km/h (1 Bft)
11/02/2007 23:00 8,1 C 88 % 1009,3 hPa 0,0 l/m 6,7 km/h (2 Bft) N 0,00 h 0,025 mm 0 W/m 6,2 C 7,2 C 9,9 km/h (2 Bft)
Min-Date _ 06/02/07 05/02/07 07/02/07 - 05/02/07 - - - - 11/02/07 11/02/07 05/02/07
_ Min-Heure 05:38 14:22 02:00 - 05:17 - - - - 06:49 03:13 06:58
Minimum _ 4,9 C 36 % 999,6 hPa - 0,0 km/h (0 Bft) - - - - -0,3 C 3,0 C 0,0 km/h (0 Bft)
Max-Date _ 05/02/07 08/02/07 05/02/07 08/02/07 05/02/07 - 05/02/07 05/02/07 06/02/07 08/02/07 05/02/07 05/02/07
_ Max-Heure 14:48 19:09 00:00 18:30 15:03 - 07:55 14:00 13:15 16:30 14:48 15:03
Maximum _ 15,7 C 94 % 1024,9 hPa 0,4 l/m 32,2 km/h
SO (5 Bft)
- 0,02 h 0,406 mm 635 W/m 9,8 C 15,7 C 43,5 km/h
SO (6 Bft)
Moyenne _ 9,2 C 72 % 1006,8 hPa #1,2 l/m 7,1 km/h (2 Bft) O-NO #36:06 h #12,976 mm 197 W/m 4,3 C 8,6 C 10,0 km/h (2 Bft)
Roquefort les pins